sensor_id;sensor_type;location;lat;lon;timestamp;P1;durP1;ratioP1;P2;durP2;ratioP2
48993;SDS011;34804;49.214;12.276;2023-05-07T00:01:50;9.27;;;3.67;;
48993;SDS011;34804;49.214;12.276;2023-05-07T00:04:17;10.18;;;3.58;;
48993;SDS011;34804;49.214;12.276;2023-05-07T00:06:44;12.65;;;3.28;;
48993;SDS011;34804;49.214;12.276;2023-05-07T00:09:11;10.77;;;3.83;;
48993;SDS011;34804;49.214;12.276;2023-05-07T00:11:38;16.38;;;3.78;;
48993;SDS011;34804;49.214;12.276;2023-05-07T00:14:05;8.10;;;3.85;;
48993;SDS011;34804;49.214;12.276;2023-05-07T00:16:32;10.02;;;3.75;;
48993;SDS011;34804;49.214;12.276;2023-05-07T00:18:59;11.73;;;3.42;;
48993;SDS011;34804;49.214;12.276;2023-05-07T00:21:26;10.13;;;3.83;;
48993;SDS011;34804;49.214;12.276;2023-05-07T00:23:53;16.27;;;3.80;;
48993;SDS011;34804;49.214;12.276;2023-05-07T00:26:20;9.43;;;3.67;;
48993;SDS011;34804;49.214;12.276;2023-05-07T00:28:48;10.40;;;3.85;;
48993;SDS011;34804;49.214;12.276;2023-05-07T00:31:15;6.53;;;3.00;;
48993;SDS011;34804;49.214;12.276;2023-05-07T00:33:42;8.18;;;4.07;;
48993;SDS011;34804;49.214;12.276;2023-05-07T00:36:09;8.07;;;3.85;;
48993;SDS011;34804;49.214;12.276;2023-05-07T00:38:35;8.38;;;3.90;;
48993;SDS011;34804;49.214;12.276;2023-05-07T00:41:02;6.80;;;3.45;;
48993;SDS011;34804;49.214;12.276;2023-05-07T00:43:29;11.68;;;3.65;;
48993;SDS011;34804;49.214;12.276;2023-05-07T00:45:56;12.57;;;3.95;;
48993;SDS011;34804;49.214;12.276;2023-05-07T00:48:23;10.63;;;3.90;;
48993;SDS011;34804;49.214;12.276;2023-05-07T00:50:51;14.52;;;3.88;;
48993;SDS011;34804;49.214;12.276;2023-05-07T00:53:18;9.73;;;3.92;;
48993;SDS011;34804;49.214;12.276;2023-05-07T00:55:46;14.13;;;3.88;;
48993;SDS011;34804;49.214;12.276;2023-05-07T00:58:13;13.30;;;4.75;;
48993;SDS011;34804;49.214;12.276;2023-05-07T01:00:40;7.80;;;3.60;;
48993;SDS011;34804;49.214;12.276;2023-05-07T01:03:07;6.28;;;3.60;;
48993;SDS011;34804;49.214;12.276;2023-05-07T01:05:34;14.40;;;4.32;;
48993;SDS011;34804;49.214;12.276;2023-05-07T01:08:02;9.82;;;3.42;;
48993;SDS011;34804;49.214;12.276;2023-05-07T01:10:31;9.93;;;3.90;;
48993;SDS011;34804;49.214;12.276;2023-05-07T01:12:58;11.95;;;4.10;;
48993;SDS011;34804;49.214;12.276;2023-05-07T01:15:26;9.52;;;3.90;;
48993;SDS011;34804;49.214;12.276;2023-05-07T01:17:53;11.05;;;4.05;;
48993;SDS011;34804;49.214;12.276;2023-05-07T01:20:22;8.07;;;4.00;;
48993;SDS011;34804;49.214;12.276;2023-05-07T01:22:49;13.73;;;5.00;;
48993;SDS011;34804;49.214;12.276;2023-05-07T01:25:16;9.75;;;4.05;;
48993;SDS011;34804;49.214;12.276;2023-05-07T01:27:44;10.82;;;4.30;;
48993;SDS011;34804;49.214;12.276;2023-05-07T01:30:11;9.38;;;3.60;;
48993;SDS011;34804;49.214;12.276;2023-05-07T01:32:43;8.80;;;3.50;;
48993;SDS011;34804;49.214;12.276;2023-05-07T01:35:20;10.77;;;3.63;;
48993;SDS011;34804;49.214;12.276;2023-05-07T01:37:50;12.50;;;3.95;;
48993;SDS011;34804;49.214;12.276;2023-05-07T01:40:17;9.02;;;3.33;;
48993;SDS011;34804;49.214;12.276;2023-05-07T01:42:45;7.72;;;4.00;;
48993;SDS011;34804;49.214;12.276;2023-05-07T01:45:12;10.57;;;4.00;;
48993;SDS011;34804;49.214;12.276;2023-05-07T01:47:39;5.75;;;2.75;;
48993;SDS011;34804;49.214;12.276;2023-05-07T01:50:07;12.23;;;3.60;;
48993;SDS011;34804;49.214;12.276;2023-05-07T01:52:37;14.57;;;4.65;;
48993;SDS011;34804;49.214;12.276;2023-05-07T01:55:05;11.05;;;3.58;;
48993;SDS011;34804;49.214;12.276;2023-05-07T01:57:32;9.25;;;3.38;;
48993;SDS011;34804;49.214;12.276;2023-05-07T01:59:59;11.82;;;3.40;;
48993;SDS011;34804;49.214;12.276;2023-05-07T02:02:26;10.30;;;4.18;;
48993;SDS011;34804;49.214;12.276;2023-05-07T02:04:53;9.68;;;3.85;;
48993;SDS011;34804;49.214;12.276;2023-05-07T02:07:20;9.88;;;4.00;;
48993;SDS011;34804;49.214;12.276;2023-05-07T02:09:47;9.15;;;3.40;;
48993;SDS011;34804;49.214;12.276;2023-05-07T02:12:14;11.30;;;4.05;;
48993;SDS011;34804;49.214;12.276;2023-05-07T02:14:41;8.48;;;3.45;;
48993;SDS011;34804;49.214;12.276;2023-05-07T02:17:08;10.00;;;3.63;;
48993;SDS011;34804;49.214;12.276;2023-05-07T02:19:34;7.80;;;3.40;;
48993;SDS011;34804;49.214;12.276;2023-05-07T02:22:02;10.13;;;4.18;;
48993;SDS011;34804;49.214;12.276;2023-05-07T02:24:28;10.95;;;4.53;;
48993;SDS011;34804;49.214;12.276;2023-05-07T02:26:56;15.13;;;3.38;;
48993;SDS011;34804;49.214;12.276;2023-05-07T02:29:23;10.57;;;4.03;;
48993;SDS011;34804;49.214;12.276;2023-05-07T02:31:51;11.07;;;3.72;;
48993;SDS011;34804;49.214;12.276;2023-05-07T02:34:19;8.02;;;3.90;;
48993;SDS011;34804;49.214;12.276;2023-05-07T02:36:46;7.25;;;3.00;;
48993;SDS011;34804;49.214;12.276;2023-05-07T02:39:13;9.50;;;3.20;;
48993;SDS011;34804;49.214;12.276;2023-05-07T02:41:41;8.65;;;3.75;;
48993;SDS011;34804;49.214;12.276;2023-05-07T02:44:08;13.85;;;3.72;;
48993;SDS011;34804;49.214;12.276;2023-05-07T02:46:36;9.57;;;3.90;;
48993;SDS011;34804;49.214;12.276;2023-05-07T02:49:03;9.95;;;4.15;;
48993;SDS011;34804;49.214;12.276;2023-05-07T02:51:30;6.78;;;3.70;;
48993;SDS011;34804;49.214;12.276;2023-05-07T02:53:57;8.13;;;3.90;;
48993;SDS011;34804;49.214;12.276;2023-05-07T02:56:25;5.65;;;3.00;;
48993;SDS011;34804;49.214;12.276;2023-05-07T02:58:53;7.63;;;3.92;;
48993;SDS011;34804;49.214;12.276;2023-05-07T03:01:19;8.07;;;3.97;;
48993;SDS011;34804;49.214;12.276;2023-05-07T03:03:47;9.25;;;4.18;;
48993;SDS011;34804;49.214;12.276;2023-05-07T03:06:14;8.63;;;4.00;;
48993;SDS011;34804;49.214;12.276;2023-05-07T03:08:41;18.52;;;4.57;;
48993;SDS011;34804;49.214;12.276;2023-05-07T03:11:08;8.75;;;3.85;;
48993;SDS011;34804;49.214;12.276;2023-05-07T03:13:35;11.25;;;4.15;;
48993;SDS011;34804;49.214;12.276;2023-05-07T03:16:02;7.78;;;4.20;;
48993;SDS011;34804;49.214;12.276;2023-05-07T03:18:29;11.05;;;4.60;;
48993;SDS011;34804;49.214;12.276;2023-05-07T03:20:57;11.38;;;4.15;;
48993;SDS011;34804;49.214;12.276;2023-05-07T03:23:24;11.90;;;3.85;;
48993;SDS011;34804;49.214;12.276;2023-05-07T03:25:51;11.85;;;4.00;;
48993;SDS011;34804;49.214;12.276;2023-05-07T03:28:18;7.25;;;4.30;;
48993;SDS011;34804;49.214;12.276;2023-05-07T03:30:45;8.48;;;4.30;;
48993;SDS011;34804;49.214;12.276;2023-05-07T03:33:12;10.23;;;5.32;;
48993;SDS011;34804;49.214;12.276;2023-05-07T03:35:39;11.73;;;6.75;;
48993;SDS011;34804;49.214;12.276;2023-05-07T03:38:07;11.70;;;6.00;;
48993;SDS011;34804;49.214;12.276;2023-05-07T03:40:34;8.30;;;5.57;;
48993;SDS011;34804;49.214;12.276;2023-05-07T03:43:01;14.88;;;6.25;;
48993;SDS011;34804;49.214;12.276;2023-05-07T03:45:27;13.25;;;6.57;;
48993;SDS011;34804;49.214;12.276;2023-05-07T03:47:54;13.55;;;5.72;;
48993;SDS011;34804;49.214;12.276;2023-05-07T03:50:21;8.73;;;5.20;;
48993;SDS011;34804;49.214;12.276;2023-05-07T03:52:48;14.30;;;5.60;;
48993;SDS011;34804;49.214;12.276;2023-05-07T03:55:15;12.13;;;5.22;;
48993;SDS011;34804;49.214;12.276;2023-05-07T03:57:42;13.85;;;5.43;;
48993;SDS011;34804;49.214;12.276;2023-05-07T04:00:09;14.65;;;6.05;;
48993;SDS011;34804;49.214;12.276;2023-05-07T04:02:36;15.85;;;6.25;;
48993;SDS011;34804;49.214;12.276;2023-05-07T04:05:03;10.73;;;5.68;;
48993;SDS011;34804;49.214;12.276;2023-05-07T04:07:31;13.27;;;5.97;;
48993;SDS011;34804;49.214;12.276;2023-05-07T04:09:58;11.40;;;6.32;;
48993;SDS011;34804;49.214;12.276;2023-05-07T04:12:24;10.75;;;6.22;;
48993;SDS011;34804;49.214;12.276;2023-05-07T04:14:51;9.80;;;6.57;;
48993;SDS011;34804;49.214;12.276;2023-05-07T04:17:18;13.55;;;6.40;;
48993;SDS011;34804;49.214;12.276;2023-05-07T04:19:45;9.80;;;6.68;;
48993;SDS011;34804;49.214;12.276;2023-05-07T04:22:13;10.63;;;5.53;;
48993;SDS011;34804;49.214;12.276;2023-05-07T04:24:40;8.70;;;5.90;;
48993;SDS011;34804;49.214;12.276;2023-05-07T04:27:07;12.18;;;6.32;;
48993;SDS011;34804;49.214;12.276;2023-05-07T04:29:34;9.07;;;5.68;;
48993;SDS011;34804;49.214;12.276;2023-05-07T04:32:02;19.85;;;5.32;;
48993;SDS011;34804;49.214;12.276;2023-05-07T04:34:29;14.20;;;6.10;;
48993;SDS011;34804;49.214;12.276;2023-05-07T04:36:58;15.57;;;7.10;;
48993;SDS011;34804;49.214;12.276;2023-05-07T04:39:25;12.30;;;7.70;;
48993;SDS011;34804;49.214;12.276;2023-05-07T04:41:52;12.63;;;7.78;;
48993;SDS011;34804;49.214;12.276;2023-05-07T04:44:19;12.35;;;7.90;;
48993;SDS011;34804;49.214;12.276;2023-05-07T04:46:46;11.25;;;6.45;;
48993;SDS011;34804;49.214;12.276;2023-05-07T04:49:13;11.45;;;6.90;;
48993;SDS011;34804;49.214;12.276;2023-05-07T04:51:40;9.80;;;7.00;;
48993;SDS011;34804;49.214;12.276;2023-05-07T04:54:10;11.43;;;7.65;;
48993;SDS011;34804;49.214;12.276;2023-05-07T04:56:37;11.77;;;7.93;;
48993;SDS011;34804;49.214;12.276;2023-05-07T04:59:04;13.50;;;7.93;;
48993;SDS011;34804;49.214;12.276;2023-05-07T05:01:31;14.25;;;8.50;;
48993;SDS011;34804;49.214;12.276;2023-05-07T05:03:58;15.15;;;8.68;;
48993;SDS011;34804;49.214;12.276;2023-05-07T05:06:27;17.30;;;8.82;;
48993;SDS011;34804;49.214;12.276;2023-05-07T05:08:54;14.50;;;9.02;;
48993;SDS011;34804;49.214;12.276;2023-05-07T05:11:21;18.17;;;9.40;;
48993;SDS011;34804;49.214;12.276;2023-05-07T05:13:48;13.10;;;9.45;;
48993;SDS011;34804;49.214;12.276;2023-05-07T05:16:16;17.77;;;8.80;;
48993;SDS011;34804;49.214;12.276;2023-05-07T05:18:43;16.08;;;8.73;;
48993;SDS011;34804;49.214;12.276;2023-05-07T05:21:09;13.75;;;8.65;;
48993;SDS011;34804;49.214;12.276;2023-05-07T05:23:36;15.38;;;10.90;;
48993;SDS011;34804;49.214;12.276;2023-05-07T05:26:03;15.07;;;9.38;;
48993;SDS011;34804;49.214;12.276;2023-05-07T05:28:30;16.63;;;10.93;;
48993;SDS011;34804;49.214;12.276;2023-05-07T05:30:57;14.95;;;10.63;;
48993;SDS011;34804;49.214;12.276;2023-05-07T05:33:23;13.80;;;9.55;;
48993;SDS011;34804;49.214;12.276;2023-05-07T05:35:50;17.88;;;10.05;;
48993;SDS011;34804;49.214;12.276;2023-05-07T05:38:17;16.85;;;11.70;;
48993;SDS011;34804;49.214;12.276;2023-05-07T05:40:44;18.33;;;11.95;;
48993;SDS011;34804;49.214;12.276;2023-05-07T05:43:11;13.95;;;10.43;;
48993;SDS011;34804;49.214;12.276;2023-05-07T05:45:38;16.27;;;11.43;;
48993;SDS011;34804;49.214;12.276;2023-05-07T05:48:05;14.43;;;9.90;;
48993;SDS011;34804;49.214;12.276;2023-05-07T05:50:32;15.52;;;9.85;;
48993;SDS011;34804;49.214;12.276;2023-05-07T05:52:59;16.05;;;9.73;;
48993;SDS011;34804;49.214;12.276;2023-05-07T05:55:25;14.73;;;10.50;;
48993;SDS011;34804;49.214;12.276;2023-05-07T05:57:52;14.43;;;10.25;;
48993;SDS011;34804;49.214;12.276;2023-05-07T06:00:19;14.02;;;9.95;;
48993;SDS011;34804;49.214;12.276;2023-05-07T06:02:48;14.00;;;10.13;;
48993;SDS011;34804;49.214;12.276;2023-05-07T06:05:15;15.43;;;10.23;;
48993;SDS011;34804;49.214;12.276;2023-05-07T06:07:42;17.50;;;10.68;;
48993;SDS011;34804;49.214;12.276;2023-05-07T06:10:09;15.20;;;9.98;;
48993;SDS011;34804;49.214;12.276;2023-05-07T06:12:37;13.82;;;9.93;;
48993;SDS011;34804;49.214;12.276;2023-05-07T06:15:04;15.07;;;9.60;;
48993;SDS011;34804;49.214;12.276;2023-05-07T06:17:31;14.68;;;8.60;;
48993;SDS011;34804;49.214;12.276;2023-05-07T06:19:58;13.20;;;8.48;;
48993;SDS011;34804;49.214;12.276;2023-05-07T06:22:25;13.10;;;8.90;;
48993;SDS011;34804;49.214;12.276;2023-05-07T06:24:51;12.90;;;8.98;;
48993;SDS011;34804;49.214;12.276;2023-05-07T06:27:18;11.30;;;8.18;;
48993;SDS011;34804;49.214;12.276;2023-05-07T06:29:45;14.27;;;8.63;;
48993;SDS011;34804;49.214;12.276;2023-05-07T06:32:14;11.43;;;8.30;;
48993;SDS011;34804;49.214;12.276;2023-05-07T06:34:41;11.52;;;8.00;;
48993;SDS011;34804;49.214;12.276;2023-05-07T06:37:08;11.90;;;8.52;;
48993;SDS011;34804;49.214;12.276;2023-05-07T06:39:36;13.15;;;8.65;;
48993;SDS011;34804;49.214;12.276;2023-05-07T06:42:04;12.52;;;8.48;;
48993;SDS011;34804;49.214;12.276;2023-05-07T06:44:31;11.27;;;8.00;;
48993;SDS011;34804;49.214;12.276;2023-05-07T06:46:58;12.15;;;8.63;;
48993;SDS011;34804;49.214;12.276;2023-05-07T06:49:25;11.35;;;7.78;;
48993;SDS011;34804;49.214;12.276;2023-05-07T06:51:52;12.07;;;7.68;;
48993;SDS011;34804;49.214;12.276;2023-05-07T06:54:19;9.50;;;6.93;;
48993;SDS011;34804;49.214;12.276;2023-05-07T06:56:46;11.10;;;7.70;;
48993;SDS011;34804;49.214;12.276;2023-05-07T06:59:13;10.20;;;7.63;;
48993;SDS011;34804;49.214;12.276;2023-05-07T07:01:41;10.00;;;7.28;;
48993;SDS011;34804;49.214;12.276;2023-05-07T07:04:08;10.38;;;7.13;;
48993;SDS011;34804;49.214;12.276;2023-05-07T07:06:34;10.77;;;7.82;;
48993;SDS011;34804;49.214;12.276;2023-05-07T07:09:01;10.10;;;7.28;;
48993;SDS011;34804;49.214;12.276;2023-05-07T07:11:28;11.57;;;7.25;;
48993;SDS011;34804;49.214;12.276;2023-05-07T07:13:55;10.68;;;7.43;;
48993;SDS011;34804;49.214;12.276;2023-05-07T07:16:22;11.73;;;7.10;;
48993;SDS011;34804;49.214;12.276;2023-05-07T07:18:50;10.48;;;7.25;;
48993;SDS011;34804;49.214;12.276;2023-05-07T07:21:17;9.68;;;6.93;;
48993;SDS011;34804;49.214;12.276;2023-05-07T07:23:44;9.77;;;6.95;;
48993;SDS011;34804;49.214;12.276;2023-05-07T07:26:12;10.57;;;6.72;;
48993;SDS011;34804;49.214;12.276;2023-05-07T07:28:42;10.02;;;6.90;;
48993;SDS011;34804;49.214;12.276;2023-05-07T07:31:11;10.50;;;6.90;;
48993;SDS011;34804;49.214;12.276;2023-05-07T07:33:38;11.23;;;7.07;;
48993;SDS011;34804;49.214;12.276;2023-05-07T07:36:06;9.50;;;6.95;;
48993;SDS011;34804;49.214;12.276;2023-05-07T07:38:33;9.13;;;6.22;;
48993;SDS011;34804;49.214;12.276;2023-05-07T07:41:01;10.10;;;7.10;;
48993;SDS011;34804;49.214;12.276;2023-05-07T07:43:28;9.30;;;6.63;;
48993;SDS011;34804;49.214;12.276;2023-05-07T07:45:55;9.15;;;7.20;;
48993;SDS011;34804;49.214;12.276;2023-05-07T07:48:22;10.30;;;7.03;;
48993;SDS011;34804;49.214;12.276;2023-05-07T07:50:49;11.65;;;6.80;;
48993;SDS011;34804;49.214;12.276;2023-05-07T07:53:17;9.85;;;6.38;;
48993;SDS011;34804;49.214;12.276;2023-05-07T07:55:44;9.98;;;7.07;;
48993;SDS011;34804;49.214;12.276;2023-05-07T07:58:11;11.43;;;7.78;;
48993;SDS011;34804;49.214;12.276;2023-05-07T08:00:38;12.90;;;7.72;;
48993;SDS011;34804;49.214;12.276;2023-05-07T08:03:05;9.48;;;7.25;;
48993;SDS011;34804;49.214;12.276;2023-05-07T08:05:35;10.32;;;7.45;;
48993;SDS011;34804;49.214;12.276;2023-05-07T08:08:02;10.52;;;7.25;;
48993;SDS011;34804;49.214;12.276;2023-05-07T08:10:29;12.40;;;7.75;;
48993;SDS011;34804;49.214;12.276;2023-05-07T08:13:00;9.75;;;7.15;;
48993;SDS011;34804;49.214;12.276;2023-05-07T08:15:30;9.73;;;7.05;;
48993;SDS011;34804;49.214;12.276;2023-05-07T08:17:57;10.40;;;7.80;;
48993;SDS011;34804;49.214;12.276;2023-05-07T08:20:28;10.85;;;7.43;;
48993;SDS011;34804;49.214;12.276;2023-05-07T08:22:55;10.07;;;7.38;;
48993;SDS011;34804;49.214;12.276;2023-05-07T08:25:22;10.77;;;7.10;;
48993;SDS011;34804;49.214;12.276;2023-05-07T08:27:48;10.07;;;7.63;;
48993;SDS011;34804;49.214;12.276;2023-05-07T08:30:15;9.45;;;7.45;;
48993;SDS011;34804;49.214;12.276;2023-05-07T08:32:42;10.77;;;7.35;;
48993;SDS011;34804;49.214;12.276;2023-05-07T08:35:09;10.73;;;7.35;;
48993;SDS011;34804;49.214;12.276;2023-05-07T08:37:36;10.32;;;6.63;;
48993;SDS011;34804;49.214;12.276;2023-05-07T08:40:03;8.98;;;6.30;;
48993;SDS011;34804;49.214;12.276;2023-05-07T08:42:37;9.60;;;6.95;;
48993;SDS011;34804;49.214;12.276;2023-05-07T08:45:09;9.70;;;7.25;;
48993;SDS011;34804;49.214;12.276;2023-05-07T08:47:42;9.30;;;6.93;;
48993;SDS011;34804;49.214;12.276;2023-05-07T08:50:13;9.60;;;6.85;;
48993;SDS011;34804;49.214;12.276;2023-05-07T08:52:41;10.88;;;7.25;;
48993;SDS011;34804;49.214;12.276;2023-05-07T08:55:08;11.55;;;7.95;;
48993;SDS011;34804;49.214;12.276;2023-05-07T08:57:36;10.90;;;7.10;;
48993;SDS011;34804;49.214;12.276;2023-05-07T09:00:06;10.93;;;7.45;;
48993;SDS011;34804;49.214;12.276;2023-05-07T09:02:36;13.35;;;7.93;;
48993;SDS011;34804;49.214;12.276;2023-05-07T09:05:04;9.65;;;7.43;;
48993;SDS011;34804;49.214;12.276;2023-05-07T09:07:31;9.63;;;6.90;;
48993;SDS011;34804;49.214;12.276;2023-05-07T09:10:00;9.35;;;7.00;;
48993;SDS011;34804;49.214;12.276;2023-05-07T09:12:29;9.88;;;7.43;;
48993;SDS011;34804;49.214;12.276;2023-05-07T09:14:57;11.00;;;7.40;;
48993;SDS011;34804;49.214;12.276;2023-05-07T09:17:25;10.02;;;7.07;;
48993;SDS011;34804;49.214;12.276;2023-05-07T09:19:52;11.05;;;7.30;;
48993;SDS011;34804;49.214;12.276;2023-05-07T09:22:19;10.70;;;7.15;;
48993;SDS011;34804;49.214;12.276;2023-05-07T09:24:47;10.70;;;7.03;;
48993;SDS011;34804;49.214;12.276;2023-05-07T09:27:17;10.20;;;6.82;;
48993;SDS011;34804;49.214;12.276;2023-05-07T09:29:44;9.73;;;6.85;;
48993;SDS011;34804;49.214;12.276;2023-05-07T09:32:11;11.93;;;7.65;;
48993;SDS011;34804;49.214;12.276;2023-05-07T09:34:38;11.50;;;6.65;;
48993;SDS011;34804;49.214;12.276;2023-05-07T09:37:06;9.52;;;6.55;;
48993;SDS011;34804;49.214;12.276;2023-05-07T09:42:07;10.52;;;7.35;;
48993;SDS011;34804;49.214;12.276;2023-05-07T09:44:35;9.98;;;6.80;;
48993;SDS011;34804;49.214;12.276;2023-05-07T09:47:03;10.90;;;7.25;;
48993;SDS011;34804;49.214;12.276;2023-05-07T09:49:33;9.13;;;6.22;;
48993;SDS011;34804;49.214;12.276;2023-05-07T09:52:04;8.20;;;6.47;;
48993;SDS011;34804;49.214;12.276;2023-05-07T09:54:33;10.18;;;6.57;;
48993;SDS011;34804;49.214;12.276;2023-05-07T09:57:01;10.18;;;6.75;;
48993;SDS011;34804;49.214;12.276;2023-05-07T09:59:31;9.52;;;7.05;;
48993;SDS011;34804;49.214;12.276;2023-05-07T10:01:59;8.57;;;6.78;;
48993;SDS011;34804;49.214;12.276;2023-05-07T10:04:30;11.13;;;7.80;;
48993;SDS011;34804;49.214;12.276;2023-05-07T10:06:58;8.77;;;6.80;;
48993;SDS011;34804;49.214;12.276;2023-05-07T10:09:26;8.70;;;6.72;;
48993;SDS011;34804;49.214;12.276;2023-05-07T10:11:53;9.75;;;6.20;;
48993;SDS011;34804;49.214;12.276;2023-05-07T10:14:20;8.25;;;6.18;;
48993;SDS011;34804;49.214;12.276;2023-05-07T10:16:48;9.30;;;6.75;;
48993;SDS011;34804;49.214;12.276;2023-05-07T10:19:15;8.07;;;6.20;;
48993;SDS011;34804;49.214;12.276;2023-05-07T10:21:56;8.90;;;6.50;;
48993;SDS011;34804;49.214;12.276;2023-05-07T10:24:34;9.63;;;6.60;;
48993;SDS011;34804;49.214;12.276;2023-05-07T10:27:10;8.80;;;6.83;;
48993;SDS011;34804;49.214;12.276;2023-05-07T10:29:41;10.07;;;6.78;;
48993;SDS011;34804;49.214;12.276;2023-05-07T10:32:48;11.30;;;7.43;;
48993;SDS011;34804;49.214;12.276;2023-05-07T10:35:17;11.30;;;7.00;;
48993;SDS011;34804;49.214;12.276;2023-05-07T10:37:47;9.45;;;7.18;;
48993;SDS011;34804;49.214;12.276;2023-05-07T10:40:14;10.40;;;7.65;;
48993;SDS011;34804;49.214;12.276;2023-05-07T10:42:55;13.25;;;8.20;;
48993;SDS011;34804;49.214;12.276;2023-05-07T10:45:27;10.68;;;7.35;;
48993;SDS011;34804;49.214;12.276;2023-05-07T10:48:13;10.02;;;6.47;;
48993;SDS011;34804;49.214;12.276;2023-05-07T10:50:44;12.63;;;7.60;;
48993;SDS011;34804;49.214;12.276;2023-05-07T10:55:47;10.07;;;7.43;;
48993;SDS011;34804;49.214;12.276;2023-05-07T11:00:58;9.93;;;6.78;;
48993;SDS011;34804;49.214;12.276;2023-05-07T11:03:26;8.18;;;6.13;;
48993;SDS011;34804;49.214;12.276;2023-05-07T11:14:14;9.88;;;7.15;;
48993;SDS011;34804;49.214;12.276;2023-05-07T11:17:09;10.73;;;6.57;;
48993;SDS011;34804;49.214;12.276;2023-05-07T11:19:50;9.98;;;6.68;;
48993;SDS011;34804;49.214;12.276;2023-05-07T11:25:00;8.85;;;6.18;;
48993;SDS011;34804;49.214;12.276;2023-05-07T11:27:29;10.18;;;6.63;;
48993;SDS011;34804;49.214;12.276;2023-05-07T11:29:56;7.75;;;5.72;;
48993;SDS011;34804;49.214;12.276;2023-05-07T11:32:26;8.50;;;5.90;;
48993;SDS011;34804;49.214;12.276;2023-05-07T11:34:59;9.55;;;6.25;;
48993;SDS011;34804;49.214;12.276;2023-05-07T11:37:28;8.27;;;5.28;;
48993;SDS011;34804;49.214;12.276;2023-05-07T11:40:08;6.20;;;4.00;;
48993;SDS011;34804;49.214;12.276;2023-05-07T11:42:38;7.05;;;4.50;;
48993;SDS011;34804;49.214;12.276;2023-05-07T11:45:06;6.97;;;5.25;;
48993;SDS011;34804;49.214;12.276;2023-05-07T11:47:34;7.50;;;4.43;;
48993;SDS011;34804;49.214;12.276;2023-05-07T11:50:05;8.25;;;5.32;;
48993;SDS011;34804;49.214;12.276;2023-05-07T11:52:34;6.82;;;4.80;;
48993;SDS011;34804;49.214;12.276;2023-05-07T11:55:01;7.13;;;4.78;;
48993;SDS011;34804;49.214;12.276;2023-05-07T11:57:32;7.50;;;4.55;;
48993;SDS011;34804;49.214;12.276;2023-05-07T12:00:00;8.35;;;4.47;;
48993;SDS011;34804;49.214;12.276;2023-05-07T12:02:31;6.78;;;4.75;;
48993;SDS011;34804;49.214;12.276;2023-05-07T12:05:00;6.22;;;4.65;;
48993;SDS011;34804;49.214;12.276;2023-05-07T12:07:27;6.75;;;4.53;;
48993;SDS011;34804;49.214;12.276;2023-05-07T12:09:54;7.60;;;4.20;;
48993;SDS011;34804;49.214;12.276;2023-05-07T12:12:21;6.80;;;4.53;;
48993;SDS011;34804;49.214;12.276;2023-05-07T12:14:48;6.28;;;4.15;;
48993;SDS011;34804;49.214;12.276;2023-05-07T12:17:15;5.80;;;3.60;;
48993;SDS011;34804;49.214;12.276;2023-05-07T12:19:43;6.40;;;3.72;;
48993;SDS011;34804;49.214;12.276;2023-05-07T12:22:11;5.82;;;3.60;;
48993;SDS011;34804;49.214;12.276;2023-05-07T12:24:48;6.20;;;3.90;;
48993;SDS011;34804;49.214;12.276;2023-05-07T12:29:50;7.15;;;3.67;;
48993;SDS011;34804;49.214;12.276;2023-05-07T12:32:17;5.82;;;3.40;;
48993;SDS011;34804;49.214;12.276;2023-05-07T12:34:45;5.43;;;3.03;;
48993;SDS011;34804;49.214;12.276;2023-05-07T12:37:15;4.72;;;2.80;;
48993;SDS011;34804;49.214;12.276;2023-05-07T12:39:48;5.80;;;3.03;;
48993;SDS011;34804;49.214;12.276;2023-05-07T12:42:19;5.28;;;3.05;;
48993;SDS011;34804;49.214;12.276;2023-05-07T12:44:51;5.90;;;3.88;;
48993;SDS011;34804;49.214;12.276;2023-05-07T12:47:18;7.40;;;4.97;;
48993;SDS011;34804;49.214;12.276;2023-05-07T12:49:46;6.40;;;4.55;;
48993;SDS011;34804;49.214;12.276;2023-05-07T12:52:13;9.52;;;4.78;;
48993;SDS011;34804;49.214;12.276;2023-05-07T12:54:40;8.52;;;5.55;;
48993;SDS011;34804;49.214;12.276;2023-05-07T12:57:08;7.82;;;5.00;;
48993;SDS011;34804;49.214;12.276;2023-05-07T12:59:36;6.85;;;4.75;;
48993;SDS011;34804;49.214;12.276;2023-05-07T13:02:05;9.25;;;5.38;;
48993;SDS011;34804;49.214;12.276;2023-05-07T13:04:33;6.60;;;4.53;;
48993;SDS011;34804;49.214;12.276;2023-05-07T13:07:00;7.85;;;4.75;;
48993;SDS011;34804;49.214;12.276;2023-05-07T13:09:28;6.82;;;4.38;;
48993;SDS011;34804;49.214;12.276;2023-05-07T13:11:55;7.32;;;5.15;;
48993;SDS011;34804;49.214;12.276;2023-05-07T13:14:22;6.15;;;4.43;;
48993;SDS011;34804;49.214;12.276;2023-05-07T13:16:49;6.78;;;4.80;;
48993;SDS011;34804;49.214;12.276;2023-05-07T13:19:16;6.50;;;4.68;;
48993;SDS011;34804;49.214;12.276;2023-05-07T13:21:43;8.25;;;4.95;;
48993;SDS011;34804;49.214;12.276;2023-05-07T13:24:10;8.13;;;5.18;;
48993;SDS011;34804;49.214;12.276;2023-05-07T13:26:37;7.47;;;4.90;;
48993;SDS011;34804;49.214;12.276;2023-05-07T13:29:04;9.10;;;5.28;;
48993;SDS011;34804;49.214;12.276;2023-05-07T13:31:31;7.30;;;5.05;;
48993;SDS011;34804;49.214;12.276;2023-05-07T13:33:58;9.15;;;4.97;;
48993;SDS011;34804;49.214;12.276;2023-05-07T13:36:24;8.23;;;5.05;;
48993;SDS011;34804;49.214;12.276;2023-05-07T13:38:53;9.35;;;4.80;;
48993;SDS011;34804;49.214;12.276;2023-05-07T13:41:20;9.13;;;5.18;;
48993;SDS011;34804;49.214;12.276;2023-05-07T13:43:47;7.05;;;4.57;;
48993;SDS011;34804;49.214;12.276;2023-05-07T13:46:15;7.18;;;4.03;;
48993;SDS011;34804;49.214;12.276;2023-05-07T13:48:42;8.10;;;4.82;;
48993;SDS011;34804;49.214;12.276;2023-05-07T13:51:09;6.97;;;4.90;;
48993;SDS011;34804;49.214;12.276;2023-05-07T13:53:36;8.18;;;4.63;;
48993;SDS011;34804;49.214;12.276;2023-05-07T13:56:03;9.13;;;4.40;;
48993;SDS011;34804;49.214;12.276;2023-05-07T13:58:30;9.48;;;4.80;;
48993;SDS011;34804;49.214;12.276;2023-05-07T14:00:57;6.88;;;4.15;;
48993;SDS011;34804;49.214;12.276;2023-05-07T14:03:25;6.78;;;4.53;;
48993;SDS011;34804;49.214;12.276;2023-05-07T14:05:53;7.03;;;4.30;;
48993;SDS011;34804;49.214;12.276;2023-05-07T14:08:20;7.05;;;4.45;;
48993;SDS011;34804;49.214;12.276;2023-05-07T14:10:46;6.25;;;4.30;;
48993;SDS011;34804;49.214;12.276;2023-05-07T14:13:13;9.20;;;4.03;;
48993;SDS011;34804;49.214;12.276;2023-05-07T14:15:40;6.13;;;4.05;;
48993;SDS011;34804;49.214;12.276;2023-05-07T14:18:12;6.93;;;4.50;;
48993;SDS011;34804;49.214;12.276;2023-05-07T14:20:39;5.57;;;3.72;;
48993;SDS011;34804;49.214;12.276;2023-05-07T14:23:06;5.88;;;3.47;;
48993;SDS011;34804;49.214;12.276;2023-05-07T14:25:33;7.20;;;3.58;;
48993;SDS011;34804;49.214;12.276;2023-05-07T14:27:59;5.95;;;3.58;;
48993;SDS011;34804;49.214;12.276;2023-05-07T14:30:27;6.13;;;3.25;;
48993;SDS011;34804;49.214;12.276;2023-05-07T14:32:54;6.72;;;3.33;;
48993;SDS011;34804;49.214;12.276;2023-05-07T14:35:21;5.68;;;3.75;;
48993;SDS011;34804;49.214;12.276;2023-05-07T14:37:48;6.18;;;3.10;;
48993;SDS011;34804;49.214;12.276;2023-05-07T14:40:15;6.78;;;3.20;;
48993;SDS011;34804;49.214;12.276;2023-05-07T14:42:41;6.25;;;2.92;;
48993;SDS011;34804;49.214;12.276;2023-05-07T14:45:09;5.25;;;3.05;;
48993;SDS011;34804;49.214;12.276;2023-05-07T14:47:36;6.07;;;3.55;;
48993;SDS011;34804;49.214;12.276;2023-05-07T14:50:03;6.70;;;3.42;;
48993;SDS011;34804;49.214;12.276;2023-05-07T14:52:30;6.60;;;3.38;;
48993;SDS011;34804;49.214;12.276;2023-05-07T14:54:57;5.97;;;3.97;;